Time;durP1;ratioP1;P1;durP2;ratioP2;P2;SDS_P1;SDS_P2;PMS_P1;PMS_P2;Temp;Humidity;BMP_temperature;BMP_pressure;BME280_temperature;BME280_humidity;BME280_pressure;Samples;Min_cycle;Max_cycle;Signal;HPM_P1;HPM_P2
2023/10/03 00:01:08;;;;;;;20.13;9.60;;;;;;;12.40;100.00;100477.75;4988420;28;20673;-74
2023/10/03 00:03:34;;;;;;;23.83;9.40;;;;;;;12.28;100.00;100486.53;4981073;28;20197;-77
2023/10/03 00:06:00;;;;;;;20.00;8.80;;;;;;;12.19;100.00;100482.03;4988915;28;20652;-76
2023/10/03 00:08:27;;;;;;;21.40;9.57;;;;;;;12.12;100.00;100474.00;4982864;28;20284;-76
2023/10/03 00:10:54;;;;;;;22.43;9.53;;;;;;;12.09;100.00;100477.53;4983963;28;20200;-77
2023/10/03 00:13:20;;;;;;;23.97;8.93;;;;;;;12.10;100.00;100478.41;4970368;28;20232;-79
2023/10/03 00:15:48;;;;;;;22.03;9.03;;;;;;;12.16;100.00;100479.34;4970626;28;20645;-78
2023/10/03 00:18:15;;;;;;;22.13;9.07;;;;;;;12.18;100.00;100474.06;4982334;28;20324;-79
2023/10/03 00:20:43;;;;;;;19.97;8.73;;;;;;;12.14;100.00;100473.16;4978315;28;20193;-79
2023/10/03 00:23:10;;;;;;;19.03;9.33;;;;;;;12.16;100.00;100475.81;4987949;28;20668;-79
2023/10/03 00:25:36;;;;;;;19.27;9.07;;;;;;;12.30;100.00;100460.88;4987654;28;20224;-79
2023/10/03 00:28:05;;;;;;;22.07;9.27;;;;;;;12.26;100.00;100467.03;4988354;28;20208;-80
2023/10/03 00:30:35;;;;;;;22.07;8.97;;;;;;;12.07;100.00;100463.34;4978394;28;20204;-79
2023/10/03 00:33:04;;;;;;;19.20;8.73;;;;;;;11.95;100.00;100457.91;4987002;28;20217;-79
2023/10/03 00:35:31;;;;;;;18.10;8.73;;;;;;;11.89;100.00;100461.41;4986833;28;20307;-80
2023/10/03 00:37:57;;;;;;;20.97;9.43;;;;;;;11.84;100.00;100460.50;4986942;28;20201;-74
2023/10/03 00:42:54;;;;;;;20.57;9.23;;;;;;;11.80;100.00;100455.13;4981114;28;20332;-75
2023/10/03 00:45:25;;;;;;;19.77;9.83;;;;;;;11.87;100.00;100460.50;4970958;28;20213;-75
2023/10/03 00:47:55;;;;;;;21.67;9.63;;;;;;;11.92;100.00;100461.44;4987572;28;20214;-77
2023/10/03 00:50:23;;;;;;;24.30;10.03;;;;;;;11.86;100.00;100466.69;4986368;28;20206;-76
2023/10/03 00:52:56;;;;;;;19.73;8.83;;;;;;;11.82;100.00;100458.69;4980011;28;20751;-75
2023/10/03 00:55:27;;;;;;;19.60;9.37;;;;;;;11.77;100.00;100463.94;4966633;28;20224;-79
2023/10/03 00:58:06;;;;;;;19.40;9.43;;;;;;;11.76;100.00;100448.00;4987548;28;20762;-80
2023/10/03 01:00:38;;;;;;;23.90;9.80;;;;;;;11.69;100.00;100443.50;4985165;28;20205;-80
2023/10/03 01:03:06;;;;;;;21.00;9.27;;;;;;;11.68;100.00;100441.72;4980626;28;20208;-79
2023/10/03 01:05:33;;;;;;;19.63;9.10;;;;;;;11.66;100.00;100435.53;4984605;28;20342;-80
2023/10/03 01:08:00;;;;;;;17.83;8.47;;;;;;;11.75;100.00;100433.84;4987910;28;20204;-77
2023/10/03 01:10:27;;;;;;;20.87;9.40;;;;;;;11.76;100.00;100427.66;4986464;28;20201;-76
2023/10/03 01:12:54;;;;;;;17.60;8.67;;;;;;;11.71;100.00;100425.84;4977181;28;20231;-78
2023/10/03 01:15:21;;;;;;;20.03;9.20;;;;;;;11.68;100.00;100421.41;4987472;28;20307;-78
2023/10/03 01:17:53;;;;;;;22.70;9.50;;;;;;;11.64;100.00;100414.28;4986249;28;20698;-76
2023/10/03 01:20:29;;;;;;;24.17;10.70;;;;;;;11.90;100.00;100414.53;4982587;28;20199;-78
2023/10/03 01:22:56;;;;;;;24.97;10.90;;;;;;;11.97;100.00;100413.69;4980676;28;20203;-78
2023/10/03 01:25:27;;;;;;;24.50;11.13;;;;;;;12.14;100.00;100421.81;4982280;28;20223;-80
2023/10/03 01:27:57;;;;;;;26.03;12.00;;;;;;;12.13;100.00;100420.03;4965976;28;20227;-79
2023/10/03 01:30:23;;;;;;;25.37;10.40;;;;;;;12.00;100.00;100426.09;4985910;28;20208;-79
2023/10/03 01:32:56;;;;;;;22.50;9.73;;;;;;;11.80;100.00;100408.28;4983673;28;20291;-80
2023/10/03 01:35:23;;;;;;;22.57;10.47;;;;;;;11.74;100.00;100402.88;4985308;28;20225;-78
2023/10/03 01:37:49;;;;;;;21.37;9.77;;;;;;;11.79;100.00;100402.94;4966383;28;20214;-79
2023/10/03 01:40:17;;;;;;;22.67;9.80;;;;;;;11.82;100.00;100392.38;4979626;28;20203;-78
2023/10/03 01:42:45;;;;;;;21.13;9.40;;;;;;;11.83;100.00;100392.38;4981074;28;20204;-79
2023/10/03 01:45:32;;;;;;;22.57;10.20;;;;;;;11.94;100.00;100400.41;4978023;28;20447;-76
2023/10/03 01:48:05;;;;;;;20.50;10.20;;;;;;;11.89;100.00;100394.19;4984607;28;20208;-74
2023/10/03 01:50:33;;;;;;;21.80;9.30;;;;;;;11.80;100.00;100383.50;4985526;28;20199;-77
2023/10/03 01:53:00;;;;;;;21.47;9.60;;;;;;;11.76;100.00;100387.88;4980195;28;20223;-77
2023/10/03 01:55:27;;;;;;;23.47;10.33;;;;;;;11.97;100.00;100388.94;4979343;28;20225;-76
2023/10/03 01:57:53;;;;;;;20.93;8.37;;;;;;;11.88;100.00;100393.28;4968825;28;20211;-80
2023/10/03 02:00:24;;;;;;;25.37;10.43;;;;;;;11.86;100.00;100381.78;4979886;28;20203;-80
2023/10/03 02:03:05;;;;;;;26.03;10.40;;;;;;;11.84;100.00;100380.00;4984399;28;20323;-79
2023/10/03 02:05:36;;;;;;;22.40;9.37;;;;;;;11.76;100.00;100389.63;4984653;28;20253;-80
2023/10/03 02:08:07;;;;;;;22.47;9.53;;;;;;;11.69;100.00;100378.06;4980651;28;20218;-79
2023/10/03 02:10:35;;;;;;;19.23;8.47;;;;;;;11.66;100.00;100375.41;4984853;28;20214;-79
2023/10/03 02:13:09;;;;;;;20.00;9.97;;;;;;;11.69;100.00;100378.06;4985401;28;20595;-79
2023/10/03 02:15:42;;;;;;;21.57;8.93;;;;;;;11.72;100.00;100362.19;4981291;28;20231;-78
2023/10/03 02:18:09;;;;;;;21.70;9.53;;;;;;;11.77;100.00;100363.09;4979461;28;20295;-78
2023/10/03 02:20:46;;;;;;;19.83;9.60;;;;;;;11.94;100.00;100368.56;4983221;28;20228;-78
2023/10/03 02:23:17;;;;;;;26.53;10.40;;;;;;;12.04;100.00;100372.19;4968977;28;20607;-77
2023/10/03 02:25:50;;;;;;;19.80;9.00;;;;;;;12.02;100.00;100374.84;4981985;28;20236;-76
2023/10/03 02:28:17;;;;;;;22.50;9.07;;;;;;;11.97;100.00;100357.97;4985397;28;20292;-78
2023/10/03 02:30:44;;;;;;;22.63;9.67;;;;;;;12.07;100.00;100354.53;4982630;28;20492;-80
2023/10/03 02:33:14;;;;;;;23.10;10.77;;;;;;;12.01;100.00;100357.13;4984606;28;20201;-78
2023/10/03 02:35:43;;;;;;;18.50;8.90;;;;;;;12.01;100.00;100361.53;4980232;28;20226;-79
2023/10/03 02:38:17;;;;;;;20.97;9.17;;;;;;;12.01;100.00;100359.78;4967213;28;20231;-76
2023/10/03 02:40:43;;;;;;;19.90;9.90;;;;;;;12.02;100.00;100350.94;4983750;28;20297;-75
2023/10/03 02:43:10;;;;;;;23.40;9.00;;;;;;;12.05;100.00;100352.75;4985988;28;21383;-74
2023/10/03 02:45:38;;;;;;;19.73;9.00;;;;;;;12.07;100.00;100340.38;4980442;28;20220;-75
2023/10/03 02:48:14;;;;;;;22.83;10.00;;;;;;;12.11;100.00;100336.84;4966162;28;20250;-76
2023/10/03 02:50:42;;;;;;;20.90;9.80;;;;;;;12.19;100.00;100348.41;4981668;28;20291;-76
2023/10/03 02:53:17;;;;;;;21.30;9.60;;;;;;;12.14;100.00;100332.44;4980524;28;20669;-76
2023/10/03 02:55:44;;;;;;;22.93;9.67;;;;;;;12.14;100.00;100323.59;4966058;28;20285;-75
2023/10/03 02:58:13;;;;;;;22.43;9.50;;;;;;;12.10;100.00;100312.06;4982958;28;20520;-74
2023/10/03 03:00:46;;;;;;;22.67;9.27;;;;;;;12.04;100.00;100306.72;4984367;28;20636;-73
2023/10/03 03:03:14;;;;;;;24.47;9.43;;;;;;;12.03;100.00;100320.00;4982604;28;20558;-75
2023/10/03 03:05:43;;;;;;;21.87;9.73;;;;;;;12.02;100.00;100316.44;4983275;28;20233;-74
2023/10/03 03:10:55;;;;;;;22.37;9.73;;;;;;;12.03;100.00;100317.34;4980083;28;20196;-73
2023/10/03 03:13:26;;;;;;;18.97;8.37;;;;;;;11.97;100.00;100309.31;4982083;28;20201;-73
2023/10/03 03:15:59;;;;;;;19.93;9.03;;;;;;;11.94;100.00;100312.84;4982346;28;20220;-73
2023/10/03 03:18:31;;;;;;;21.00;8.67;;;;;;;11.93;100.00;100306.63;4979764;28;20200;-75
2023/10/03 03:20:58;;;;;;;20.57;9.47;;;;;;;11.93;100.00;100301.31;4974892;28;20734;-73
2023/10/03 03:23:31;;;;;;;21.00;8.90;;;;;;;11.95;100.00;100298.69;4982870;28;20239;-73
2023/10/03 03:26:17;;;;;;;21.80;8.87;;;;;;;11.95;100.00;100284.53;4982575;28;20227;-73
2023/10/03 03:28:47;;;;;;;20.73;9.33;;;;;;;11.97;100.00;100298.69;4981428;28;20771;-75
2023/10/03 03:31:21;;;;;;;19.23;8.53;;;;;;;12.01;100.00;100314.69;4981329;28;20259;-74
2023/10/03 03:33:50;;;;;;;21.60;9.40;;;;;;;12.01;100.00;100303.13;4988068;28;20220;-75
2023/10/03 03:36:22;;;;;;;24.70;9.60;;;;;;;12.03;100.00;100306.72;4985674;28;20224;-76
2023/10/03 03:38:51;;;;;;;21.13;8.93;;;;;;;12.05;100.00;100302.31;4988654;28;20298;-75
2023/10/03 03:41:18;;;;;;;23.97;9.43;;;;;;;12.14;100.00;100307.66;4984518;28;20204;-75
2023/10/03 03:43:47;;;;;;;24.07;9.70;;;;;;;12.16;100.00;100298.81;4982973;28;20331;-76
2023/10/03 03:46:14;;;;;;;23.70;9.60;;;;;;;12.16;100.00;100298.81;4987421;28;20358;-76
2023/10/03 03:48:41;;;;;;;22.47;10.27;;;;;;;12.14;100.00;100292.63;4986862;28;20200;-76
2023/10/03 03:51:11;;;;;;;18.10;8.63;;;;;;;12.14;100.00;100284.66;4987076;28;20566;-73
2023/10/03 03:53:38;;;;;;;23.07;9.40;;;;;;;12.16;100.00;100293.50;4985673;28;20224;-74
2023/10/03 03:56:07;;;;;;;22.07;9.17;;;;;;;12.27;100.00;100295.34;4984659;28;20331;-73
2023/10/03 03:58:37;;;;;;;19.80;9.13;;;;;;;12.25;100.00;100287.34;4983860;28;20669;-73
2023/10/03 04:01:11;;;;;;;18.17;8.87;;;;;;;12.22;100.00;100282.91;4986587;28;20638;-73
2023/10/03 04:03:38;;;;;;;25.47;9.67;;;;;;;12.43;100.00;100290.13;4986124;28;20192;-73
2023/10/03 04:06:05;;;;;;;22.80;9.53;;;;;;;12.51;100.00;100287.47;4969684;28;20229;-73
2023/10/03 04:08:31;;;;;;;23.63;9.63;;;;;;;12.47;100.00;100275.97;4987172;28;20201;-72
2023/10/03 04:10:58;;;;;;;23.80;9.63;;;;;;;12.52;100.00;100282.19;4987481;28;20614;-73
2023/10/03 04:13:26;;;;;;;23.70;9.87;;;;;;;12.50;100.00;100285.72;4985517;28;20201;-73
2023/10/03 04:15:53;;;;;;;22.97;9.43;;;;;;;12.41;100.00;100283.91;4980160;28;20213;-74
2023/10/03 04:18:20;;;;;;;23.93;9.47;;;;;;;12.33;100.00;100279.41;4986637;28;20691;-75
2023/10/03 04:20:47;;;;;;;21.23;8.53;;;;;;;12.26;100.00;100277.63;4981655;28;20205;-76
2023/10/03 04:23:14;;;;;;;19.67;8.77;;;;;;;12.21;100.00;100274.94;4986812;28;20200;-75
2023/10/03 04:25:41;;;;;;;18.67;8.87;;;;;;;12.23;100.00;100275.84;4986581;28;20208;-74
2023/10/03 04:28:11;;;;;;;22.47;9.87;;;;;;;12.31;100.00;100263.47;4987633;28;20323;-74
2023/10/03 04:30:39;;;;;;;22.40;9.60;;;;;;;12.35;100.00;100275.00;4982644;28;20211;-72
2023/10/03 04:33:05;;;;;;;22.10;9.10;;;;;;;12.40;100.00;100276.78;4986092;28;20209;-72
2023/10/03 04:35:35;;;;;;;24.40;9.73;;;;;;;12.42;100.00;100275.06;4977946;28;20709;-75
2023/10/03 04:38:04;;;;;;;18.10;8.80;;;;;;;12.39;100.00;100269.72;4988738;28;20376;-78
2023/10/03 04:40:34;;;;;;;21.40;9.27;;;;;;;12.36;100.00;100264.38;4985524;28;20201;-78
2023/10/03 04:43:10;;;;;;;22.83;9.90;;;;;;;12.33;100.00;100267.03;4986810;28;20666;-79
2023/10/03 04:45:37;;;;;;;24.77;9.93;;;;;;;12.34;100.00;100265.25;4981428;28;20210;-78
2023/10/03 04:48:04;;;;;;;24.20;10.23;;;;;;;12.41;100.00;100256.47;4986069;28;20196;-73
2023/10/03 04:50:32;;;;;;;19.47;9.13;;;;;;;12.33;100.00;100261.72;4984871;28;20236;-73
2023/10/03 04:53:00;;;;;;;22.57;9.77;;;;;;;12.28;100.00;100244.00;4965965;28;20201;-75
2023/10/03 04:55:26;;;;;;;23.07;9.70;;;;;;;12.31;100.00;100263.47;4983420;28;20225;-76
2023/10/03 04:57:54;;;;;;;22.37;9.30;;;;;;;12.35;100.00;100253.75;4987270;28;20201;-75
2023/10/03 05:00:22;;;;;;;19.90;8.93;;;;;;;12.27;100.00;100253.72;4985111;28;20196;-76
2023/10/03 05:02:51;;;;;;;18.57;8.17;;;;;;;12.32;100.00;100262.59;4981422;28;20200;-73
2023/10/03 05:05:21;;;;;;;18.43;9.00;;;;;;;12.27;100.00;100253.72;4985987;28;20236;-75
2023/10/03 05:07:50;;;;;;;21.03;9.30;;;;;;;12.23;100.00;100257.25;4986475;28;20256;-73
2023/10/03 05:10:19;;;;;;;22.10;9.73;;;;;;;12.20;100.00;100257.25;4983386;28;20212;-73
2023/10/03 05:12:47;;;;;;;21.97;8.93;;;;;;;12.18;100.00;100259.00;4981994;28;20299;-73
2023/10/03 05:15:17;;;;;;;25.13;9.93;;;;;;;12.14;100.00;100252.81;4979660;28;20221;-74
2023/10/03 05:17:48;;;;;;;19.70;8.73;;;;;;;12.15;100.00;100245.72;4983628;28;20666;-76
2023/10/03 05:20:20;;;;;;;19.43;9.37;;;;;;;12.12;100.00;100241.28;4961403;28;20289;-76
2023/10/03 05:22:47;;;;;;;19.50;8.83;;;;;;;12.11;100.00;100258.09;4984072;28;20204;-75
2023/10/03 05:25:17;;;;;;;20.10;9.13;;;;;;;12.11;100.00;100257.22;4976539;28;20217;-76
2023/10/03 05:27:47;;;;;;;23.17;9.73;;;;;;;12.19;100.00;100256.34;4981161;28;20227;-75
2023/10/03 05:30:14;;;;;;;19.47;9.07;;;;;;;12.30;100.00;100268.78;4982925;28;20197;-75
2023/10/03 05:32:45;;;;;;;24.83;10.17;;;;;;;12.34;100.00;100271.47;4982220;28;20668;-77
2023/10/03 05:35:12;;;;;;;20.03;8.80;;;;;;;12.26;100.00;100267.00;4983796;28;20320;-79
2023/10/03 05:37:42;;;;;;;19.43;9.00;;;;;;;12.18;100.00;100262.56;4986505;28;20197;-80
2023/10/03 05:40:12;;;;;;;21.40;8.87;;;;;;;12.19;100.00;100263.44;4982743;28;20197;-81
2023/10/03 05:42:47;;;;;;;20.10;8.77;;;;;;;12.26;100.00;100264.34;4985108;28;20203;-81
2023/10/03 05:45:15;;;;;;;19.13;8.83;;;;;;;12.41;100.00;100270.63;4986539;28;20240;-79
2023/10/03 05:47:44;;;;;;;21.23;9.87;;;;;;;12.45;100.00;100277.72;4984883;28;20240;-79
2023/10/03 05:50:22;;;;;;;21.57;9.10;;;;;;;12.45;100.00;100274.19;4983673;28;20205;-80
2023/10/03 05:52:48;;;;;;;21.20;8.80;;;;;;;12.40;100.00;100271.47;4978705;28;20782;-79
2023/10/03 05:55:16;;;;;;;21.80;8.57;;;;;;;12.38;100.00;100270.59;4980348;28;20224;-81
2023/10/03 05:57:43;;;;;;;23.17;9.03;;;;;;;12.41;100.00;100280.38;4982156;28;20205;-81
2023/10/03 06:00:16;;;;;;;22.00;9.40;;;;;;;12.61;100.00;100283.09;4987500;28;20233;-79
2023/10/03 06:02:43;;;;;;;20.10;9.03;;;;;;;12.66;100.00;100279.56;4964288;28;20197;-79
2023/10/03 06:05:14;;;;;;;25.30;10.03;;;;;;;12.79;100.00;100280.47;4978210;28;20233;-76
2023/10/03 06:07:43;;;;;;;22.70;9.70;;;;;;;12.91;100.00;100299.13;4985324;28;20201;-76
2023/10/03 06:10:16;;;;;;;23.13;9.97;;;;;;;12.97;100.00;100300.91;4988478;28;20205;-77
2023/10/03 06:12:44;;;;;;;23.13;9.93;;;;;;;12.97;100.00;100295.59;4977915;28;20209;-78
2023/10/03 06:15:12;;;;;;;25.20;10.97;;;;;;;12.97;100.00;100292.94;4967253;28;20256;-75
2023/10/03 06:17:40;;;;;;;22.70;9.70;;;;;;;13.06;100.00;100285.84;4984725;28;20296;-76
2023/10/03 06:20:07;;;;;;;23.00;10.23;;;;;;;13.12;100.00;100288.50;4986413;28;20201;-77
2023/10/03 06:22:33;;;;;;;20.20;8.67;;;;;;;13.24;100.00;100284.16;4982372;28;20204;-74
2023/10/03 06:25:00;;;;;;;23.43;9.70;;;;;;;13.36;100.00;100285.03;4985563;28;20208;-74
2023/10/03 06:27:30;;;;;;;24.27;10.80;;;;;;;13.46;100.00;100276.16;4987398;28;20865;-73
2023/10/03 06:29:56;;;;;;;20.70;9.90;;;;;;;13.56;100.00;100266.41;4984954;28;20216;-74
2023/10/03 06:32:23;;;;;;;25.00;10.50;;;;;;;13.69;100.00;100267.28;4983444;28;20204;-73
2023/10/03 06:34:50;;;;;;;21.67;9.50;;;;;;;13.74;100.00;100273.50;4977550;28;20227;-72
2023/10/03 06:37:16;;;;;;;22.57;10.30;;;;;;;13.79;100.00;100277.91;4985041;28;20674;-72
2023/10/03 06:39:43;;;;;;;23.33;10.70;;;;;;;13.88;100.00;100276.13;4984613;28;20280;-71
2023/10/03 06:42:09;;;;;;;25.07;9.57;;;;;;;13.97;100.00;100278.75;4983985;28;20201;-73
2023/10/03 06:44:40;;;;;;;23.47;10.97;;;;;;;14.03;100.00;100287.66;4986752;28;20208;-71
2023/10/03 06:47:08;;;;;;;28.13;11.50;;;;;;;14.14;100.00;100284.94;4983178;28;20306;-71
2023/10/03 06:49:35;;;;;;;28.63;10.87;;;;;;;14.23;100.00;100295.56;4969783;28;20224;-72
2023/10/03 06:52:03;;;;;;;20.90;9.83;;;;;;;14.32;100.00;100281.31;4986510;28;20210;-72
2023/10/03 06:54:30;;;;;;;23.40;10.10;;;;;;;14.46;100.00;100284.00;4987092;28;20299;-72
2023/10/03 06:56:56;;;;;;;22.60;10.37;;;;;;;14.58;100.00;100275.94;4983947;28;20683;-72
2023/10/03 06:59:23;;;;;;;18.57;9.27;;;;;;;14.74;100.00;100290.94;4982435;28;20252;-73
2023/10/03 07:01:49;;;;;;;19.93;10.37;;;;;;;14.89;100.00;100288.22;4984565;28;20665;-72
2023/10/03 07:04:16;;;;;;;27.23;11.37;;;;;;;15.06;100.00;100296.09;4987141;28;20204;-71
2023/10/03 07:06:43;;;;;;;22.63;9.40;;;;;;;15.23;100.00;100296.91;4981635;28;20229;-72
2023/10/03 07:09:11;;;;;;;22.00;9.47;;;;;;;15.48;100.00;100296.69;4970992;28;20841;-73
2023/10/03 07:11:38;;;;;;;24.90;10.33;;;;;;;15.56;100.00;100306.41;4982799;28;20209;-73
2023/10/03 07:14:04;;;;;;;24.77;9.43;;;;;;;15.63;100.00;100304.63;4986791;28;20296;-71
2023/10/03 07:16:37;;;;;;;19.23;9.20;;;;;;;15.71;100.00;100308.09;4986303;28;20228;-71
2023/10/03 07:19:04;;;;;;;20.63;9.43;;;;;;;15.84;100.00;100308.88;4983000;28;20212;-72
2023/10/03 07:21:34;;;;;;;23.33;10.30;;;;;;;16.05;100.00;100315.81;4985905;28;20208;-71
2023/10/03 07:24:01;;;;;;;19.87;9.47;;;;;;;16.20;100.00;100315.63;4982501;28;20217;-72
2023/10/03 07:26:27;;;;;;;22.70;9.67;;;;;;;16.40;100.00;100318.06;4986529;28;20217;-71
2023/10/03 07:28:58;;;;;;;26.07;9.80;;;;;;;16.47;100.00;100318.00;4985905;28;20205;-71
2023/10/03 07:31:25;;;;;;;23.00;10.10;;;;;;;16.49;100.00;100309.97;4984768;28;20701;-71
2023/10/03 07:33:52;;;;;;;23.00;10.23;;;;;;;16.58;100.00;100300.03;4977628;28;20319;-73
2023/10/03 07:36:20;;;;;;;19.47;9.70;;;;;;;16.78;100.00;100302.47;4985991;28;20228;-72
2023/10/03 07:38:46;;;;;;;19.77;9.17;;;;;;;16.95;100.00;100301.38;4984753;28;20228;-73
2023/10/03 07:41:13;;;;;;;22.03;10.57;;;;;;;17.09;100.00;100304.72;4993965;28;20582;-72
2023/10/03 07:43:40;;;;;;;19.10;9.07;;;;;;;17.34;100.00;100297.25;4988456;28;20197;-73
2023/10/03 07:46:07;;;;;;;19.73;9.00;;;;;;;17.59;100.00;100305.75;4987218;28;20310;-72
2023/10/03 07:48:34;;;;;;;21.80;9.93;;;;;;;17.81;100.00;100300.03;4985831;28;20201;-72
2023/10/03 07:51:05;;;;;;;20.27;9.23;;;;;;;17.89;100.00;100307.06;4984714;28;20224;-73
2023/10/03 07:53:31;;;;;;;18.97;8.63;;;;;;;18.05;100.00;100311.25;4992500;28;20588;-74
2023/10/03 07:55:59;;;;;;;20.77;9.20;;;;;;;18.19;100.00;100313.66;4989850;28;20300;-74
2023/10/03 07:58:32;;;;;;;18.20;8.00;;;;;;;18.38;100.00;100307.00;4988220;28;20223;-74
2023/10/03 08:00:58;;;;;;;14.40;7.10;;;;;;;18.60;100.00;100302.09;4987315;28;21029;-75
2023/10/03 08:03:28;;;;;;;14.73;7.97;;;;;;;18.73;100.00;100303.63;4993240;28;20276;-74
2023/10/03 08:05:57;;;;;;;13.43;7.63;;;;;;;18.85;100.00;100308.78;4989609;28;20278;-75
2023/10/03 08:08:25;;;;;;;11.82;6.63;;;;;;;18.78;100.00;100323.19;4986577;28;20201;-74
2023/10/03 08:10:51;;;;;;;12.80;6.80;;;;;;;18.74;100.00;100340.28;4987037;28;20236;-74
2023/10/03 08:13:18;;;;;;;15.48;6.88;;;;;;;18.69;100.00;100326.09;4983218;28;20284;-74
2023/10/03 08:15:44;;;;;;;12.45;6.60;;;;;;;18.66;100.00;100327.03;4982567;28;20223;-73
2023/10/03 08:18:17;;;;;;;13.48;6.57;;;;;;;18.72;100.00;100331.38;4985975;28;20579;-74
2023/10/03 08:20:53;;;;;;;11.65;6.35;;;;;;;18.64;100.00;100327.97;4977581;28;20682;-73
2023/10/03 08:23:20;;;;;;;14.47;6.80;;;;;;;18.71;100.00;100317.09;4989226;28;20201;-74
2023/10/03 08:25:47;;;;;;;12.30;6.20;;;;;;;18.77;100.00;100341.09;4987751;28;20228;-74
2023/10/03 08:28:20;;;;;;;11.52;6.15;;;;;;;18.84;100.00;100346.38;4987547;28;20208;-73
2023/10/03 08:30:47;;;;;;;11.65;6.18;;;;;;;18.75;100.00;100344.75;4972445;28;20200;-74
2023/10/03 08:33:16;;;;;;;12.75;6.50;;;;;;;18.69;100.00;100340.38;4985369;28;20292;-73
2023/10/03 08:35:46;;;;;;;11.90;6.80;;;;;;;18.76;100.00;100350.06;4986976;28;20235;-72
2023/10/03 08:38:13;;;;;;;10.23;6.00;;;;;;;18.76;100.00;100347.38;4991535;28;20280;-75
2023/10/03 08:40:45;;;;;;;10.15;5.88;;;;;;;18.83;100.00;100349.97;4985031;28;20286;-74
2023/10/03 08:43:12;;;;;;;10.40;5.75;;;;;;;18.85;100.00;100354.38;4987716;28;20304;-73
2023/10/03 08:45:41;;;;;;;14.65;6.93;;;;;;;18.92;100.00;100353.34;4984521;28;20224;-74
2023/10/03 08:48:08;;;;;;;8.77;5.80;;;;;;;19.01;100.00;100358.50;4990258;28;20196;-75
2023/10/03 08:50:46;;;;;;;10.07;5.80;;;;;;;19.19;100.00;100362.56;4972652;28;20221;-75
2023/10/03 08:53:17;;;;;;;11.05;5.63;;;;;;;19.36;100.00;100360.41;4988968;28;20208;-74
2023/10/03 08:55:48;;;;;;;10.18;5.68;;;;;;;19.52;100.00;100351.97;4988353;28;20615;-76
2023/10/03 08:58:18;;;;;;;10.77;5.75;;;;;;;19.72;100.00;100357.81;4986881;28;20207;-74
2023/10/03 09:00:49;;;;;;;10.68;5.82;;;;;;;19.86;100.00;100357.44;4972923;28;20204;-73
2023/10/03 09:03:18;;;;;;;8.73;5.70;;;;;;;20.02;100.00;100364.22;4986855;28;20201;-74
2023/10/03 09:05:45;;;;;;;12.02;5.65;;;;;;;20.19;100.00;100358.41;4989533;28;20291;-74
2023/10/03 09:08:14;;;;;;;11.02;5.20;;;;;;;20.50;100.00;100351.31;4989407;28;20679;-73
2023/10/03 09:10:51;;;;;;;10.05;5.20;;;;;;;20.77;100.00;100351.41;4987226;28;20252;-79
2023/10/03 09:13:25;;;;;;;9.80;5.65;;;;;;;20.86;100.00;100352.06;4987659;28;20197;-73
2023/10/03 09:16:00;;;;;;;12.50;5.82;;;;;;;21.10;100.00;100344.16;4988117;28;20274;-73
2023/10/03 09:18:42;;;;;;;8.82;5.13;;;;;;;21.26;100.00;100350.91;4985166;28;20205;-74
2023/10/03 09:21:15;;;;;;;8.75;5.18;;;;;;;21.23;100.00;100341.09;4985754;28;20363;-74
2023/10/03 09:23:59;;;;;;;9.10;5.40;;;;;;;21.41;100.00;100347.72;4988529;28;20761;-74
2023/10/03 09:26:26;;;;;;;7.90;5.22;;;;;;;21.50;100.00;100352.78;4986654;28;20217;-73
2023/10/03 09:28:53;;;;;;;9.52;5.70;;;;;;;21.61;100.00;100349.75;4989018;28;20327;-73
2023/10/03 09:31:22;;;;;;;8.18;5.22;;;;;;;21.78;100.00;100370.78;4982800;28;20475;-73
2023/10/03 09:33:49;;;;;;;8.88;5.22;;;;;;;21.89;100.00;100371.31;4987194;28;20244;-74
2023/10/03 09:36:15;;;;;;;8.65;5.55;;;;;;;21.96;100.00;100367.47;4988662;28;20232;-73
2023/10/03 09:38:45;;;;;;;8.30;5.20;;;;;;;22.01;100.00;100365.50;4989392;28;20204;-75
2023/10/03 09:41:18;;;;;;;11.13;5.22;;;;;;;22.27;97.88;100356.53;4988851;28;20201;-74
2023/10/03 09:43:47;;;;;;;10.32;5.55;;;;;;;22.49;96.70;100357.56;4988199;28;20728;-73
2023/10/03 09:46:23;;;;;;;9.00;5.00;;;;;;;22.64;94.98;100357.94;4986304;28;20212;-73
2023/10/03 09:48:53;;;;;;;9.25;5.13;;;;;;;22.80;93.21;100369.91;4987985;28;20200;-74
2023/10/03 09:51:36;;;;;;;8.77;5.15;;;;;;;22.90;94.34;100381.31;4988287;28;20201;-74
2023/10/03 09:54:08;;;;;;;9.70;4.72;;;;;;;23.04;93.84;100385.25;4982797;28;20240;-74
2023/10/03 09:56:40;;;;;;;9.15;5.10;;;;;;;22.98;91.12;100371.97;4984077;28;20309;-74
2023/10/03 09:59:17;;;;;;;8.20;4.78;;;;;;;23.23;89.78;100354.84;4987853;28;20197;-75
2023/10/03 10:01:45;;;;;;;10.00;5.18;;;;;;;23.39;89.74;100356.84;4966217;28;20205;-74
2023/10/03 10:04:15;;;;;;;8.35;5.18;;;;;;;23.36;88.47;100340.75;4988551;28;20263;-74
2023/10/03 10:07:14;;;;;;;12.00;6.75;;;;;;;23.60;87.08;100343.44;4987231;28;20298;-73
2023/10/03 10:09:52;;;;;;;8.85;5.53;;;;;;;23.73;87.00;100356.41;4983775;28;20304;-73
2023/10/03 10:12:19;;;;;;;11.27;6.57;;;;;;;23.87;83.56;100350.41;4987673;28;20283;-73
2023/10/03 10:15:00;;;;;;;8.98;5.57;;;;;;;23.88;84.73;100368.41;4987210;28;20579;-76
2023/10/03 10:17:55;;;;;;;14.80;5.80;;;;;;;23.60;85.96;100371.34;4988862;28;20222;-78
2023/10/03 10:20:33;;;;;;;8.48;5.22;;;;;;;23.84;84.40;100366.78;4983554;28;20630;-76
2023/10/03 10:23:02;;;;;;;10.75;5.93;;;;;;;24.14;83.13;100372.72;4984776;28;20228;-74
2023/10/03 10:25:42;;;;;;;10.02;5.45;;;;;;;24.30;80.38;100367.56;4987779;28;20309;-74
2023/10/03 10:28:17;;;;;;;9.63;5.10;;;;;;;24.38;79.67;100368.97;4982321;28;20200;-74
2023/10/03 10:31:22;;;;;;;9.18;5.28;;;;;;;24.65;78.12;100357.88;4986996;28;20196;-76
2023/10/03 10:33:49;;;;;;;9.18;5.25;;;;;;;25.18;75.15;100341.00;4986910;28;21186;-74
2023/10/03 10:36:18;;;;;;;9.93;5.10;;;;;;;25.52;71.27;100345.69;4968737;28;20252;-74
2023/10/03 10:38:49;;;;;;;9.27;5.80;;;;;;;25.67;70.67;100344.09;4987256;28;20793;-74
2023/10/03 10:41:22;;;;;;;9.68;5.70;;;;;;;25.73;70.83;100336.53;4987736;28;20362;-74
2023/10/03 10:44:09;;;;;;;8.93;5.47;;;;;;;25.98;71.49;100346.13;4985982;28;20196;-75
2023/10/03 10:46:45;;;;;;;10.27;5.10;;;;;;;26.27;69.84;100347.34;4988037;28;20767;-74
2023/10/03 10:49:34;;;;;;;9.68;5.20;;;;;;;26.51;66.63;100349.72;4985166;28;20217;-74
2023/10/03 10:52:01;;;;;;;6.38;4.43;;;;;;;26.56;67.07;100354.03;4985908;28;20209;-75
2023/10/03 10:54:28;;;;;;;9.75;5.00;;;;;;;26.43;66.73;100351.97;4987940;28;20279;-75
2023/10/03 10:57:07;;;;;;;8.25;5.20;;;;;;;26.28;68.75;100344.56;4986747;28;20303;-73
2023/10/03 10:59:40;;;;;;;8.35;5.20;;;;;;;26.49;67.97;100348.91;4985015;28;21040;-74
2023/10/03 11:02:15;;;;;;;9.75;5.72;;;;;;;26.31;65.92;100346.25;4986321;28;20204;-73
2023/10/03 11:04:43;;;;;;;10.07;5.97;;;;;;;26.21;66.98;100344.00;4988077;28;20637;-73
2023/10/03 11:07:10;;;;;;;11.80;6.50;;;;;;;25.84;69.23;100349.56;4988471;28;20193;-73
2023/10/03 11:09:37;;;;;;;11.45;5.07;;;;;;;25.89;67.59;100340.22;4987742;28;20196;-74
2023/10/03 11:12:06;;;;;;;11.13;5.10;;;;;;;25.92;68.00;100342.78;4984588;28;20732;-74
2023/10/03 11:14:33;;;;;;;10.35;4.82;;;;;;;26.15;67.52;100352.47;4987175;28;20306;-75
2023/10/03 11:17:01;;;;;;;8.40;4.82;;;;;;;26.16;67.58;100351.50;4987629;28;20216;-73
2023/10/03 11:19:31;;;;;;;8.88;5.00;;;;;;;26.33;65.66;100347.03;4971781;28;20267;-74
2023/10/03 11:21:58;;;;;;;10.77;4.93;;;;;;;26.57;63.58;100356.66;4983764;28;20193;-75
2023/10/03 11:24:25;;;;;;;11.85;5.78;;;;;;;26.27;63.70;100345.53;4988202;28;20660;-74
2023/10/03 11:26:53;;;;;;;8.82;5.05;;;;;;;26.00;65.11;100339.66;4985953;28;20530;-74